createdAt,value
2023-04-27T00:02:02.039Z,97730.00
2023-04-27T00:04:49.215Z,97725.13
2023-04-27T00:07:36.511Z,97730.59
2023-04-27T00:10:23.442Z,97737.09
2023-04-27T00:13:10.504Z,97733.66
2023-04-27T00:15:57.521Z,97729.28
2023-04-27T00:18:45.993Z,97726.44
2023-04-27T00:21:33.357Z,97723.34
2023-04-27T00:24:20.579Z,97719.09
2023-04-27T00:27:07.812Z,97724.13
2023-04-27T00:29:54.759Z,97717.72
2023-04-27T00:32:42.615Z,97722.91
2023-04-27T00:35:29.636Z,97711.53
2023-04-27T00:38:16.602Z,97722.97
2023-04-27T00:41:04.708Z,97718.41
2023-04-27T00:43:51.620Z,97716.06
2023-04-27T00:46:38.698Z,97704.47
2023-04-27T00:49:26.875Z,97712.97
2023-04-27T00:52:14.439Z,97710.25
2023-04-27T00:55:04.185Z,97712.34
2023-04-27T00:57:51.826Z,97710.38
2023-04-27T01:00:40.258Z,97709.41
2023-04-27T01:03:27.703Z,97707.31
2023-04-27T01:06:14.743Z,97710.44
2023-04-27T01:09:01.725Z,97708.25
2023-04-27T01:11:48.637Z,97706.78
2023-04-27T01:14:36.827Z,97703.47
2023-04-27T01:17:24.614Z,97704.88
2023-04-27T01:20:11.990Z,97701.34
2023-04-27T01:22:59.760Z,97710.66
2023-04-27T01:25:46.737Z,97711.00
2023-04-27T01:28:33.652Z,97705.56
2023-04-27T01:31:20.679Z,97709.75
2023-04-27T01:34:07.865Z,97710.47
2023-04-27T01:36:54.850Z,97710.34
2023-04-27T01:39:41.899Z,97717.44
2023-04-27T01:42:28.823Z,97716.91
2023-04-27T01:45:15.802Z,97719.81
2023-04-27T01:48:02.791Z,97715.69
2023-04-27T01:50:49.721Z,97721.38
2023-04-27T01:53:36.677Z,97726.88
2023-04-27T01:56:23.622Z,97723.44
2023-04-27T01:59:10.638Z,97731.78
2023-04-27T02:01:57.582Z,97727.19
2023-04-27T02:04:45.309Z,97732.53
2023-04-27T02:07:32.445Z,97731.25
2023-04-27T02:10:19.479Z,97744.00
2023-04-27T02:13:06.457Z,97737.31
2023-04-27T02:15:53.490Z,97741.72
2023-04-27T02:18:40.801Z,97744.56
2023-04-27T02:21:28.528Z,97731.94
2023-04-27T02:24:15.424Z,97732.34
2023-04-27T02:27:03.840Z,97732.75
2023-04-27T02:29:51.304Z,97740.56
2023-04-27T02:32:38.955Z,97742.13
2023-04-27T02:35:25.881Z,97739.22
2023-04-27T02:38:13.575Z,97737.00
2023-04-27T02:41:00.642Z,97730.22
2023-04-27T02:43:47.612Z,97739.22
2023-04-27T02:46:34.574Z,97741.72
2023-04-27T02:49:21.701Z,97741.44
2023-04-27T02:52:09.007Z,97743.06
2023-04-27T02:54:56.048Z,97739.84
2023-04-27T02:57:42.990Z,97743.41
2023-04-27T03:00:30.191Z,97738.50
2023-04-27T03:03:17.207Z,97739.63
2023-04-27T03:06:04.612Z,97734.41
2023-04-27T03:08:51.548Z,97729.41
2023-04-27T03:11:39.383Z,97729.91
2023-04-27T03:14:26.284Z,97734.09
2023-04-27T03:17:13.139Z,97731.25
2023-04-27T03:20:00.275Z,97730.03
2023-04-27T03:22:47.332Z,97735.06
2023-04-27T03:25:34.329Z,97739.34
2023-04-27T03:28:21.341Z,97730.13
2023-04-27T03:31:09.830Z,97736.66
2023-04-27T03:33:57.118Z,97740.09
2023-04-27T03:36:44.045Z,97738.59
2023-04-27T03:39:31.133Z,97737.56
2023-04-27T03:42:17.977Z,97736.84
2023-04-27T03:45:06.642Z,97736.31
2023-04-27T03:47:53.629Z,97736.09
2023-04-27T03:50:41.049Z,97739.53
2023-04-27T03:53:27.983Z,97747.59
2023-04-27T03:56:15.012Z,97756.13
2023-04-27T03:59:01.912Z,97751.75
2023-04-27T04:01:48.871Z,97746.09
2023-04-27T04:04:35.999Z,97749.25
2023-04-27T04:07:23.104Z,97750.09
2023-04-27T04:10:10.813Z,97757.28
2023-04-27T04:12:57.797Z,97758.22
2023-04-27T04:15:44.762Z,97761.56
2023-04-27T04:18:32.022Z,97769.06
2023-04-27T04:21:18.941Z,97774.09
2023-04-27T04:24:06.517Z,97768.03
2023-04-27T04:26:53.385Z,97768.66
2023-04-27T04:29:40.655Z,97769.94
2023-04-27T04:32:31.509Z,97771.78
2023-04-27T04:35:19.750Z,97773.16
2023-04-27T04:38:06.703Z,97785.78
2023-04-27T04:40:53.826Z,97782.75
2023-04-27T04:43:40.914Z,97779.84
2023-04-27T04:46:28.631Z,97787.78
2023-04-27T04:49:15.909Z,97789.41
2023-04-27T04:52:04.269Z,97783.25
2023-04-27T04:54:54.467Z,97791.22
2023-04-27T04:57:41.593Z,97787.31
2023-04-27T05:00:28.762Z,97795.84
2023-04-27T05:03:15.837Z,97797.44
2023-04-27T05:06:02.926Z,97800.84
2023-04-27T05:08:50.004Z,97798.53
2023-04-27T05:11:36.929Z,97796.75
2023-04-27T05:14:23.980Z,97803.53
2023-04-27T05:17:11.075Z,97802.53
2023-04-27T05:19:58.332Z,97803.59
2023-04-27T05:22:45.408Z,97810.38
2023-04-27T05:25:41.548Z,97813.88
2023-04-27T05:28:28.468Z,97816.09
2023-04-27T05:31:15.504Z,97824.53
2023-04-27T05:34:02.487Z,97829.88
2023-04-27T05:36:49.455Z,97829.81
2023-04-27T05:39:36.458Z,97827.16
2023-04-27T05:42:23.485Z,97831.53
2023-04-27T05:45:10.908Z,97828.28
2023-04-27T05:47:57.878Z,97824.78
2023-04-27T05:50:44.971Z,97829.81
2023-04-27T05:53:34.570Z,97830.44
2023-04-27T05:56:22.380Z,97829.03
2023-04-27T05:59:09.932Z,97823.97
2023-04-27T06:01:57.141Z,97836.53
2023-04-27T06:04:44.521Z,97838.47
2023-04-27T06:07:31.771Z,97842.63
2023-04-27T06:10:18.711Z,97843.50
2023-04-27T06:13:05.631Z,97845.75
2023-04-27T06:15:52.594Z,97840.94
2023-04-27T06:18:39.556Z,97847.63
2023-04-27T06:21:26.589Z,97852.41
2023-04-27T06:24:13.524Z,97853.13
2023-04-27T06:27:01.272Z,97847.66
2023-04-27T06:29:48.231Z,97847.09
2023-04-27T06:32:35.235Z,97853.41
2023-04-27T06:35:22.186Z,97843.41
2023-04-27T06:38:09.182Z,97847.50
2023-04-27T06:40:56.967Z,97844.06
2023-04-27T06:43:43.918Z,97854.03
2023-04-27T06:46:30.967Z,97849.09
2023-04-27T06:49:17.949Z,97848.03
2023-04-27T06:52:05.769Z,97862.66
2023-04-27T06:54:52.773Z,97861.06
2023-04-27T06:57:39.700Z,97852.69
2023-04-27T07:00:27.280Z,97856.50
2023-04-27T07:03:15.196Z,97847.63
2023-04-27T07:06:02.316Z,97852.00
2023-04-27T07:08:49.230Z,97855.66
2023-04-27T07:11:36.437Z,97859.31
2023-04-27T07:14:23.591Z,97859.66
2023-04-27T07:17:10.680Z,97859.66
2023-04-27T07:19:57.601Z,97857.66
2023-04-27T07:22:44.866Z,97857.66
2023-04-27T07:25:31.785Z,97852.91
2023-04-27T07:28:18.844Z,97853.66
2023-04-27T07:31:06.410Z,97849.41
2023-04-27T07:33:53.337Z,97853.75
2023-04-27T07:36:40.293Z,97857.69
2023-04-27T07:39:27.728Z,97856.97
2023-04-27T07:42:15.311Z,97861.69
2023-04-27T07:45:02.323Z,97860.31
2023-04-27T07:47:49.333Z,97858.06
2023-04-27T07:50:36.350Z,97860.84
2023-04-27T07:53:23.296Z,97868.69
2023-04-27T07:56:10.619Z,97862.53
2023-04-27T07:58:57.581Z,97872.28
2023-04-27T08:01:44.596Z,97869.47
2023-04-27T08:04:32.024Z,97873.78
2023-04-27T08:07:19.922Z,97865.69
2023-04-27T08:10:08.197Z,97874.16
2023-04-27T08:12:55.159Z,97875.50
2023-04-27T08:15:42.097Z,97878.28
2023-04-27T08:18:29.050Z,97871.81
2023-04-27T08:21:16.212Z,97876.03
2023-04-27T08:24:04.211Z,97869.97
2023-04-27T08:26:51.374Z,97877.06
2023-04-27T08:29:38.339Z,97879.53
2023-04-27T08:32:25.275Z,97879.13
2023-04-27T08:35:13.378Z,97877.66
2023-04-27T08:38:00.546Z,97887.00
2023-04-27T08:40:47.569Z,97880.16
2023-04-27T08:43:35.968Z,97886.25
2023-04-27T08:46:25.196Z,97890.56
2023-04-27T08:49:14.402Z,97888.72
2023-04-27T08:52:03.058Z,97882.88
2023-04-27T08:54:50.004Z,97895.78
2023-04-27T08:57:37.139Z,97879.22
2023-04-27T09:00:25.995Z,97878.81
2023-04-27T09:03:23.404Z,97872.31
2023-04-27T09:06:10.595Z,97867.91
2023-04-27T09:08:57.546Z,97875.22
2023-04-27T09:11:45.252Z,97872.03
2023-04-27T09:14:36.030Z,97875.34
2023-04-27T09:17:27.883Z,97872.19
2023-04-27T09:20:15.224Z,97871.19
2023-04-27T09:23:02.124Z,97874.34
2023-04-27T09:25:49.295Z,97880.56
2023-04-27T09:28:39.364Z,97866.13
2023-04-27T09:31:33.677Z,97859.75
2023-04-27T09:34:20.722Z,97858.75
2023-04-27T09:37:08.287Z,97858.59
2023-04-27T09:39:55.379Z,97860.78
2023-04-27T09:42:42.527Z,97855.78
2023-04-27T09:45:29.733Z,97848.31
2023-04-27T09:48:17.608Z,97848.25
2023-04-27T09:51:04.801Z,97851.50
2023-04-27T09:53:54.272Z,97847.97
2023-04-27T09:57:37.102Z,97850.59
2023-04-27T10:00:53.206Z,97846.91
2023-04-27T10:03:55.925Z,97841.03
2023-04-27T10:07:00.008Z,97839.47
2023-04-27T10:09:49.675Z,97843.44
2023-04-27T10:12:36.966Z,97840.44
2023-04-27T10:15:30.498Z,97850.19
2023-04-27T10:18:31.142Z,97845.75
2023-04-27T10:21:18.204Z,97836.50
2023-04-27T10:24:09.137Z,97834.00
2023-04-27T10:27:03.257Z,97839.38
2023-04-27T10:29:51.390Z,97840.50
2023-04-27T10:32:38.468Z,97831.91
2023-04-27T10:36:05.270Z,97831.81
2023-04-27T10:38:56.915Z,97827.06
2023-04-27T10:41:51.828Z,97819.38
2023-04-27T10:44:39.348Z,97819.72
2023-04-27T10:47:42.270Z,97815.41
2023-04-27T10:50:29.471Z,97823.28
2023-04-27T10:53:16.846Z,97818.69
2023-04-27T10:56:06.962Z,97816.59
2023-04-27T10:58:54.208Z,97812.47
2023-04-27T11:01:42.326Z,97805.50
2023-04-27T11:04:40.355Z,97808.03
2023-04-27T11:07:29.249Z,97811.69
2023-04-27T11:10:17.812Z,97807.75
2023-04-27T11:13:15.164Z,97813.66
2023-04-27T11:16:05.184Z,97812.22
2023-04-27T11:18:52.119Z,97809.38
2023-04-27T11:21:39.272Z,97807.00
2023-04-27T11:24:26.236Z,97807.19
2023-04-27T11:27:13.259Z,97812.66
2023-04-27T11:30:00.203Z,97814.88
2023-04-27T11:32:48.091Z,97808.09
2023-04-27T11:35:35.032Z,97802.19
2023-04-27T11:38:22.890Z,97803.38
2023-04-27T11:41:09.902Z,97799.78
2023-04-27T11:44:04.167Z,97792.88
2023-04-27T11:46:51.118Z,97803.00
2023-04-27T11:49:38.677Z,97795.09
2023-04-27T11:52:33.030Z,97795.97
2023-04-27T11:55:24.539Z,97795.41
2023-04-27T11:58:15.827Z,97798.44
2023-04-27T12:01:04.320Z,97788.84
2023-04-27T12:03:51.525Z,97789.72
2023-04-27T12:06:39.041Z,97784.81
2023-04-27T12:09:26.059Z,97779.31
2023-04-27T12:12:14.169Z,97781.91
2023-04-27T12:15:01.148Z,97775.78
2023-04-27T12:17:48.179Z,97777.34
2023-04-27T12:20:35.825Z,97777.22
2023-04-27T12:23:22.832Z,97778.28
2023-04-27T12:26:10.148Z,97781.72
2023-04-27T12:28:57.153Z,97780.41
2023-04-27T12:31:44.664Z,97788.50
2023-04-27T12:34:32.903Z,97784.16
2023-04-27T12:37:19.778Z,97781.72
2023-04-27T12:40:08.979Z,97783.63
2023-04-27T12:42:55.977Z,97791.69
2023-04-27T12:45:42.914Z,97787.44
2023-04-27T12:48:29.850Z,97773.69
2023-04-27T12:51:17.055Z,97787.44
2023-04-27T12:54:04.728Z,97779.63
2023-04-27T12:56:52.377Z,97781.84
2023-04-27T12:59:39.423Z,97783.84
2023-04-27T13:02:27.243Z,97779.66
2023-04-27T13:05:14.662Z,97779.78
2023-04-27T13:08:01.655Z,97772.88
2023-04-27T13:10:48.553Z,97776.22
2023-04-27T13:13:36.062Z,97783.19
2023-04-27T13:16:25.366Z,97786.69
2023-04-27T13:19:12.700Z,97783.06
2023-04-27T13:21:59.594Z,97785.69
2023-04-27T13:24:47.129Z,97782.94
2023-04-27T13:27:34.048Z,97774.88
2023-04-27T13:30:21.160Z,97785.84
2023-04-27T13:33:21.818Z,97778.16
2023-04-27T13:36:11.316Z,97775.41
2023-04-27T13:38:58.241Z,97779.31
2023-04-27T13:41:46.089Z,97772.88
2023-04-27T13:44:33.013Z,97774.03
2023-04-27T13:47:20.075Z,97773.38
2023-04-27T13:50:09.077Z,97775.91
2023-04-27T13:52:56.039Z,97768.84
2023-04-27T13:55:43.899Z,97770.84
2023-04-27T13:58:32.048Z,97763.88
2023-04-27T14:01:19.121Z,97770.53
2023-04-27T14:04:06.327Z,97766.06
2023-04-27T14:06:53.389Z,97762.47
2023-04-27T14:09:40.344Z,97762.00
2023-04-27T14:12:27.332Z,97765.44
2023-04-27T14:15:14.940Z,97761.41
2023-04-27T14:18:01.977Z,97761.09
2023-04-27T14:20:49.308Z,97759.03
2023-04-27T14:23:36.462Z,97758.03
2023-04-27T14:26:23.445Z,97758.31
2023-04-27T14:29:11.299Z,97757.34
2023-04-27T14:31:58.338Z,97751.59
2023-04-27T14:34:45.484Z,97754.03
2023-04-27T14:37:32.485Z,97760.72
2023-04-27T14:40:20.112Z,97751.66
2023-04-27T14:43:07.173Z,97754.53
2023-04-27T14:45:59.556Z,97752.97
2023-04-27T14:48:49.361Z,97747.34
2023-04-27T14:51:36.379Z,97752.25
2023-04-27T14:54:23.293Z,97748.75
2023-04-27T14:57:10.195Z,97753.09
2023-04-27T14:59:57.193Z,97749.44
2023-04-27T15:02:44.267Z,97752.34
2023-04-27T15:05:31.806Z,97752.03
2023-04-27T15:08:18.719Z,97753.34
2023-04-27T15:11:05.998Z,97755.50
2023-04-27T15:13:52.945Z,97754.16
2023-04-27T15:16:40.208Z,97756.88
2023-04-27T15:19:27.743Z,97749.72
2023-04-27T15:22:14.919Z,97752.03
2023-04-27T15:25:02.304Z,97756.03
2023-04-27T15:27:49.643Z,97747.22
2023-04-27T15:30:36.635Z,97750.34
2023-04-27T15:33:23.693Z,97754.72
2023-04-27T15:36:11.212Z,97745.34
2023-04-27T15:38:58.200Z,97748.84
2023-04-27T15:41:45.293Z,97746.66
2023-04-27T15:44:32.278Z,97736.50
2023-04-27T15:47:21.774Z,97734.03
2023-04-27T15:50:08.874Z,97733.59
2023-04-27T15:52:56.210Z,97733.59
2023-04-27T15:55:43.353Z,97745.47
2023-04-27T15:58:30.610Z,97737.72
2023-04-27T16:01:17.561Z,97734.69
2023-04-27T16:04:04.892Z,97726.44
2023-04-27T16:06:51.995Z,97736.03
2023-04-27T16:09:38.968Z,97730.53
2023-04-27T16:12:26.398Z,97732.28
2023-04-27T16:15:13.358Z,97727.53
2023-04-27T16:18:00.712Z,97728.25
2023-04-27T16:20:47.994Z,97724.94
2023-04-27T16:23:34.926Z,97729.13
2023-04-27T16:26:21.849Z,97723.06
2023-04-27T16:29:08.794Z,97722.19
2023-04-27T16:31:55.807Z,97724.50
2023-04-27T16:34:42.800Z,97727.25
2023-04-27T16:37:29.716Z,97739.72
2023-04-27T16:40:16.878Z,97736.69
2023-04-27T16:43:03.794Z,97739.13
2023-04-27T16:45:51.098Z,97733.63
2023-04-27T16:48:38.044Z,97732.50
2023-04-27T16:51:25.191Z,97732.50
2023-04-27T16:54:12.767Z,97735.38
2023-04-27T16:56:59.699Z,97742.56
2023-04-27T16:59:46.693Z,97738.53
2023-04-27T17:02:33.755Z,97739.84
2023-04-27T17:05:21.278Z,97743.69
2023-04-27T17:08:08.690Z,97729.69
2023-04-27T17:10:55.855Z,97740.94
2023-04-27T17:13:42.926Z,97737.50
2023-04-27T17:16:29.884Z,97736.19
2023-04-27T17:19:16.864Z,97732.56
2023-04-27T17:22:04.301Z,97737.31
2023-04-27T17:24:51.180Z,97734.44
2023-04-27T17:27:38.064Z,97732.84
2023-04-27T17:30:24.991Z,97743.13
2023-04-27T17:33:12.044Z,97743.66
2023-04-27T17:35:58.983Z,97743.38
2023-04-27T17:38:46.490Z,97739.03
2023-04-27T17:41:35.442Z,97739.31
2023-04-27T17:44:23.782Z,97745.22
2023-04-27T17:47:10.825Z,97739.69
2023-04-27T17:49:57.757Z,97745.31
2023-04-27T17:52:44.775Z,97746.00
2023-04-27T17:55:32.402Z,97742.34
2023-04-27T17:58:19.413Z,97736.25
2023-04-27T18:01:11.433Z,97750.63
2023-04-27T18:04:01.103Z,97744.34
2023-04-27T18:06:49.989Z,97746.16
2023-04-27T18:09:37.050Z,97744.97
2023-04-27T18:12:24.028Z,97739.91
2023-04-27T18:15:11.368Z,97747.09
2023-04-27T18:17:58.353Z,97749.91
2023-04-27T18:20:47.270Z,97757.63
2023-04-27T18:23:36.272Z,97752.66
2023-04-27T18:26:23.235Z,97757.81
2023-04-27T18:29:10.129Z,97754.56
2023-04-27T18:31:58.425Z,97764.72
2023-04-27T18:34:45.403Z,97765.19
2023-04-27T18:37:33.202Z,97755.38
2023-04-27T18:40:21.731Z,97765.28
2023-04-27T18:43:08.858Z,97765.66
2023-04-27T18:45:55.982Z,97769.19
2023-04-27T18:48:43.000Z,97782.00
2023-04-27T18:51:29.914Z,97779.69
2023-04-27T18:54:16.897Z,97780.22
2023-04-27T18:57:04.465Z,97776.59
2023-04-27T18:59:51.417Z,97779.38
2023-04-27T19:02:39.129Z,97781.97
2023-04-27T19:05:26.350Z,97783.16
2023-04-27T19:08:13.427Z,97781.75
2023-04-27T19:11:00.483Z,97782.69
2023-04-27T19:13:47.410Z,97787.97
2023-04-27T19:16:36.074Z,97790.22
2023-04-27T19:19:23.168Z,97783.19
2023-04-27T19:22:10.106Z,97788.81
2023-04-27T19:24:57.014Z,97786.66
2023-04-27T19:27:44.146Z,97796.88
2023-04-27T19:33:20.300Z,97792.88
2023-04-27T19:36:08.066Z,97798.56
2023-04-27T19:38:55.348Z,97798.00
2023-04-27T19:41:42.260Z,97795.31
2023-04-27T19:44:29.211Z,97802.81
2023-04-27T19:47:16.168Z,97802.81
2023-04-27T19:50:04.855Z,97809.06
2023-04-27T19:52:51.828Z,97816.38
2023-04-27T19:55:40.198Z,97807.44
2023-04-27T19:58:27.133Z,97811.31
2023-04-27T20:01:14.137Z,97801.47
2023-04-27T20:04:01.229Z,97800.75
2023-04-27T20:06:48.838Z,97809.72
2023-04-27T20:09:35.914Z,97804.47
2023-04-27T20:12:43.462Z,97802.50
2023-04-27T20:15:30.272Z,97810.72
2023-04-27T20:18:17.617Z,97810.00
2023-04-27T20:21:04.544Z,97812.56
2023-04-27T20:23:51.484Z,97811.09
2023-04-27T20:26:38.503Z,97812.00
2023-04-27T20:29:25.522Z,97819.47
2023-04-27T20:32:12.772Z,97821.47
2023-04-27T20:35:00.845Z,97822.19
2023-04-27T20:37:49.044Z,97820.75
2023-04-27T20:40:37.796Z,97828.53
2023-04-27T20:43:24.733Z,97824.56
2023-04-27T20:46:12.015Z,97818.34
2023-04-27T20:48:58.963Z,97826.38
2023-04-27T20:51:46.290Z,97831.63
2023-04-27T20:54:33.232Z,97834.00
2023-04-27T20:57:20.229Z,97822.16
2023-04-27T21:00:09.977Z,97818.72
2023-04-27T21:02:57.130Z,97816.91
2023-04-27T21:05:44.280Z,97815.47
2023-04-27T21:08:31.519Z,97815.47
2023-04-27T21:11:18.498Z,97818.19
2023-04-27T21:14:05.429Z,97809.28
2023-04-27T21:16:52.462Z,97811.09
2023-04-27T21:19:39.417Z,97805.63
2023-04-27T21:22:26.339Z,97798.53
2023-04-27T21:25:13.376Z,97796.91
2023-04-27T21:28:00.681Z,97800.69
2023-04-27T21:30:47.727Z,97801.97
2023-04-27T21:33:34.679Z,97806.00
2023-04-27T21:36:21.713Z,97800.69
2023-04-27T21:39:08.716Z,97791.78
2023-04-27T21:41:55.835Z,97799.59
2023-04-27T21:44:42.759Z,97797.94
2023-04-27T21:47:29.774Z,97790.69
2023-04-27T21:50:16.830Z,97789.16
2023-04-27T21:53:03.797Z,97785.13
2023-04-27T21:55:51.208Z,97782.19
2023-04-27T21:58:38.327Z,97783.06
2023-04-27T22:01:27.221Z,97784.31
2023-04-27T22:04:14.655Z,97779.72
2023-04-27T22:07:02.409Z,97788.19
2023-04-27T22:09:49.369Z,97787.56
2023-04-27T22:12:36.339Z,97788.13
2023-04-27T22:15:23.318Z,97784.31
2023-04-27T22:18:10.382Z,97789.00
2023-04-27T22:20:58.264Z,97791.56
2023-04-27T22:23:45.417Z,97790.69
2023-04-27T22:26:32.475Z,97792.84
2023-04-27T22:29:19.440Z,97801.69
2023-04-27T22:32:07.482Z,97799.94
2023-04-27T22:34:54.626Z,97793.19
2023-04-27T22:37:41.971Z,97791.66
2023-04-27T22:40:28.897Z,97788.38
2023-04-27T22:43:15.854Z,97787.78
2023-04-27T22:46:02.749Z,97787.25
2023-04-27T22:48:50.488Z,97795.81
2023-04-27T22:51:38.328Z,97796.03
2023-04-27T22:54:25.399Z,97796.78
2023-04-27T22:57:12.321Z,97795.31
2023-04-27T22:59:59.303Z,97782.38
2023-04-27T23:02:47.287Z,97783.59
2023-04-27T23:05:34.373Z,97783.59
2023-04-27T23:08:24.979Z,97787.84
2023-04-27T23:11:13.875Z,97779.75
2023-04-27T23:14:00.837Z,97781.59
2023-04-27T23:16:49.142Z,97781.88
2023-04-27T23:19:36.281Z,97785.66
2023-04-27T23:22:23.854Z,97777.50
2023-04-27T23:25:11.322Z,97779.16
2023-04-27T23:27:58.521Z,97777.84
2023-04-27T23:30:52.636Z,97772.28
2023-04-27T23:33:39.719Z,97771.00
2023-04-27T23:36:26.659Z,97766.28
2023-04-27T23:39:13.604Z,97761.41
2023-04-27T23:42:00.644Z,97761.25
2023-04-27T23:44:47.787Z,97769.22
2023-04-27T23:47:34.768Z,97763.31
2023-04-27T23:50:21.766Z,97759.47
2023-04-27T23:53:08.761Z,97761.78
2023-04-27T23:55:56.732Z,97757.22
2023-04-27T23:58:43.671Z,97757.91
